Homestead, MT

7:53 AM MDT on October 23, 2014 (GMT -0600)
RAWS MEDICINE LAKE MT US | Change Station
CLOSE
Current Station
Personal Weather Station
Location: Medicine Lake, MT
Elevation: 1975 ft
Nearby Weather Stations

Elev 1975 ft 48.49 °N, 104.48 °W | Updated 55 minutes ago

Clear
Clear
33 °F
Feels Like 33 °F
N
2
Wind Variable Wind from SSW
Gusts 8.0 mph

Today
High -- | Low -- °F
--% Chance of Precip.
Yesterday
High -- | Low -- °F
Precip. -- in
7:30 AM 5:54 PM
Waning Crescent, 0% visible
Pressure 29.88 in
Visibility 10.0 miles
Clouds Clear
Windchill 33 °F
Dew Point 29 °F
Humidity 85%
Rainfall 0.00 in
Snow Depth Not available.
UV 0 out of 12
Pollen 1.60 out of 12
Air Quality Not available.
Flu Activity No Activity
METAR KISN 231252Z AUTO 19003KT 10SM CLR 02/M01 A2984 RMK AO2 SLP119 T00171006

More Conditions Fewer Conditions

Pressure 29.88 in
Visibility 10.0 miles
Clouds Clear
Windchill 33 °F
Dew Point 29 °F
Humidity 85%
Rainfall 0.00 in
Snow Depth Not available.
UV 0 out of 12
Pollen 1.60 out of 12
Air Quality Not available.
Flu Activity No Activity
METAR KISN 231252Z AUTO 19003KT 10SM CLR 02/M01 A2984 RMK AO2 SLP119 T00171006

More Conditions Fewer Conditions

10-Day Weather Forecast

Almanac

Astronomy

Oct. 23, 2014 Rise Set
Actual Time 7:30 AM MDT 5:54 PM MDT
Civil Twilight 6:58 AM MDT 6:26 PM MDT
Nautical Twilight 6:21 AM MDT 7:02 PM MDT
Astronomical Twilight 5:45 AM MDT 7:38 PM MDT
Moon 7:11 AM MDT 5:57 PM MDT
Length of Visible Light 11h 27m
Length of Day
10h 23m
Tomorrow will be 3m 21s shorter.
Waning Crescent, 0% of the Moon is Illuminated
Today
Waning Crescent
Oct 23
New
Oct 30
First Quarter
Nov 6
Full
Nov 14
Last Quarter

Today's Extremes

State Highs State Lows

Community

WunderPhotos

Upload Photos

1,764,238 photos uploaded!

Nearby

Snow Depth

Station Depth Elevation
Crystal Lake 1 in 6050 ft
Daisy Peak 0 in 7600 ft
Spur Park 0 in 8100 ft
Deadman Creek 0 in 6450 ft
Onion Park 0 in 7410 ft

Earthquake Activity

City Distance Mag. Time & Date
No recent earthquake activity has been reported nearby.
Minimum magnitude displayed is 2.5.

Coastal Water Temperatures

Place Temperature
No Stations Reporting

Nearby Weather Stations